Time;durP1;ratioP1;P1;durP2;ratioP2;P2;SDS_P1;SDS_P2;PMS_P1;PMS_P2;Temp;Humidity;BMP_temperature;BMP_pressure;BME280_temperature;BME280_humidity;BME280_pressure;Samples;Min_cycle;Max_cycle;Signal;HPM_P1;HPM_P2
2022/05/29 00:00:10;;;;;;;6.35;5.95;;;;;;;;;;5030376;28;20086;-60
2022/05/29 00:02:35;;;;;;;7.65;7.05;;;;;;;;;;5031096;28;20048;-59
2022/05/29 00:05:01;;;;;;;6.40;6.00;;;;;;;;;;5027113;28;20348;-60
2022/05/29 00:07:26;;;;;;;6.70;6.20;;;;;;;;;;5027578;28;20033;-59
2022/05/29 00:09:52;;;;;;;8.20;7.60;;;;;;;;;;5025890;28;20115;-59
2022/05/29 00:12:19;;;;;;;7.38;6.88;;;;;;;;;;5025818;28;20043;-59
2022/05/29 00:14:47;;;;;;;6.47;6.07;;;;;;;;;;5023676;28;20053;-59
2022/05/29 00:17:13;;;;;;;6.28;5.88;;;;;;;;;;5028022;28;20029;-59
2022/05/29 00:19:39;;;;;;;7.00;6.50;;;;;;;;;;5027451;28;20043;-59
2022/05/29 00:22:05;;;;;;;7.07;6.57;;;;;;;;;;5027409;28;20029;-59
2022/05/29 00:24:31;;;;;;;6.45;5.95;;;;;;;;;;5025796;28;20546;-59
2022/05/29 00:26:56;;;;;;;6.18;5.78;;;;;;;;;;5025690;28;20061;-59
2022/05/29 00:29:22;;;;;;;8.02;7.30;;;;;;;;;;5024308;28;20052;-59
2022/05/29 00:31:48;;;;;;;7.68;7.18;;;;;;;;;;5027109;28;20064;-56
2022/05/29 00:34:13;;;;;;;7.57;7.00;;;;;;;;;;5026346;28;20033;-52
2022/05/29 00:36:41;;;;;;;6.93;6.43;;;;;;;;;;5027381;28;20071;-52
2022/05/29 00:39:07;;;;;;;7.40;6.90;;;;;;;;;;5025531;28;20025;-54
2022/05/29 00:41:34;;;;;;;7.40;6.90;;;;;;;;;;5026721;28;20033;-53
2022/05/29 00:44:21;;;;;;;8.52;8.02;;;;;;;;;;5025268;28;20033;-53
2022/05/29 00:46:51;;;;;;;8.77;8.07;;;;;;;;;;5023672;28;20037;-53
2022/05/29 00:49:18;;;;;;;9.13;8.52;;;;;;;;;;5023081;28;20027;-54
2022/05/29 00:51:49;;;;;;;7.93;7.43;;;;;;;;;;5025223;28;20037;-56
2022/05/29 00:54:16;;;;;;;6.90;6.40;;;;;;;;;;5028675;28;20033;-56
2022/05/29 00:56:42;;;;;;;7.30;6.80;;;;;;;;;;5028491;28;20041;-56
2022/05/29 00:59:12;;;;;;;7.47;6.90;;;;;;;;;;5026922;28;21389;-57
2022/05/29 01:01:38;;;;;;;7.57;7.07;;;;;;;;;;5023318;28;20537;-57
2022/05/29 01:04:04;;;;;;;7.03;6.53;;;;;;;;;;5023885;28;20120;-57
2022/05/29 01:06:30;;;;;;;6.78;6.28;;;;;;;;;;5026747;28;20053;-56
2022/05/29 01:08:59;;;;;;;7.05;6.55;;;;;;;;;;5025193;28;20115;-57
2022/05/29 01:11:52;;;;;;;7.30;6.80;;;;;;;;;;5027756;28;20029;-58
2022/05/29 01:14:23;;;;;;;7.10;6.60;;;;;;;;;;5023874;28;20088;-58
2022/05/29 01:17:10;;;;;;;7.90;7.40;;;;;;;;;;5027774;28;20021;-58
2022/05/29 01:19:54;;;;;;;7.13;6.63;;;;;;;;;;5025737;28;20115;-58
2022/05/29 01:22:38;;;;;;;7.78;7.28;;;;;;;;;;5025973;28;20572;-58
2022/05/29 01:25:22;;;;;;;6.60;6.10;;;;;;;;;;5023771;28;20281;-58
2022/05/29 01:28:24;;;;;;;8.13;7.63;;;;;;;;;;5027499;28;20045;-58
2022/05/29 01:31:08;;;;;;;7.05;6.55;;;;;;;;;;5028674;28;20108;-58
2022/05/29 01:33:48;;;;;;;7.93;7.43;;;;;;;;;;5028090;28;20029;-58
2022/05/29 01:36:16;;;;;;;8.80;8.10;;;;;;;;;;5023724;28;20033;-58
2022/05/29 01:38:47;;;;;;;7.55;7.05;;;;;;;;;;5026420;28;20033;-58
2022/05/29 01:41:27;;;;;;;7.32;6.82;;;;;;;;;;5029807;28;20068;-58
2022/05/29 01:44:11;;;;;;;8.07;7.57;;;;;;;;;;5030735;28;20053;-58
2022/05/29 01:46:37;;;;;;;8.32;7.82;;;;;;;;;;5018147;28;20063;-58
2022/05/29 01:49:26;;;;;;;6.88;6.38;;;;;;;;;;5028917;28;20063;-58
2022/05/29 01:51:58;;;;;;;7.45;6.95;;;;;;;;;;5025873;28;20072;-59
2022/05/29 01:54:32;;;;;;;7.95;7.45;;;;;;;;;;5029837;28;20056;-58
2022/05/29 01:57:19;;;;;;;7.35;6.85;;;;;;;;;;5029196;28;20929;-59
2022/05/29 02:00:11;;;;;;;8.80;8.05;;;;;;;;;;5030464;28;20035;-58
2022/05/29 02:02:38;;;;;;;7.82;7.28;;;;;;;;;;5031733;28;20505;-58
2022/05/29 02:05:09;;;;;;;7.07;6.57;;;;;;;;;;5028712;28;20034;-59
2022/05/29 02:07:50;;;;;;;7.20;6.70;;;;;;;;;;5030388;28;20528;-59
2022/05/29 02:10:20;;;;;;;6.55;6.05;;;;;;;;;;5027307;28;20577;-59
2022/05/29 02:13:00;;;;;;;7.07;6.57;;;;;;;;;;5026663;28;20033;-59
2022/05/29 02:15:33;;;;;;;7.95;7.35;;;;;;;;;;5025398;28;20582;-59
2022/05/29 02:18:02;;;;;;;6.97;6.47;;;;;;;;;;5030931;28;20087;-59
2022/05/29 02:20:36;;;;;;;6.78;6.25;;;;;;;;;;5028005;28;20522;-58
2022/05/29 02:23:09;;;;;;;6.00;5.60;;;;;;;;;;5028122;28;20064;-59
2022/05/29 02:25:37;;;;;;;7.15;6.65;;;;;;;;;;5030065;28;20669;-59
2022/05/29 02:28:18;;;;;;;6.78;6.18;;;;;;;;;;5028191;28;20044;-59
2022/05/29 02:30:50;;;;;;;6.90;6.40;;;;;;;;;;5030708;28;20115;-59
2022/05/29 02:33:25;;;;;;;8.00;7.30;;;;;;;;;;5027752;28;20033;-59
2022/05/29 02:36:23;;;;;;;6.55;6.13;;;;;;;;;;5029745;28;20025;-59
2022/05/29 02:39:27;;;;;;;7.72;7.22;;;;;;;;;;5029194;28;20029;-58
2022/05/29 02:42:01;;;;;;;7.32;6.82;;;;;;;;;;5028329;28;20029;-59
2022/05/29 02:44:49;;;;;;;6.32;5.82;;;;;;;;;;5027076;28;20382;-59
2022/05/29 02:47:32;;;;;;;7.03;6.53;;;;;;;;;;5028009;28;20581;-59
2022/05/29 02:50:30;;;;;;;7.18;6.68;;;;;;;;;;5029620;28;20159;-59
2022/05/29 02:52:59;;;;;;;7.07;6.57;;;;;;;;;;5025363;28;20025;-59
2022/05/29 02:55:25;;;;;;;7.40;6.90;;;;;;;;;;5026586;28;20128;-59
2022/05/29 02:57:56;;;;;;;6.80;6.30;;;;;;;;;;5027254;28;20112;-58
2022/05/29 03:00:22;;;;;;;6.90;6.40;;;;;;;;;;5029274;28;20087;-59
2022/05/29 03:03:05;;;;;;;7.13;6.63;;;;;;;;;;5027985;28;20683;-59
2022/05/29 03:05:38;;;;;;;6.80;6.30;;;;;;;;;;5025824;28;20039;-59
2022/05/29 03:08:32;;;;;;;6.40;5.90;;;;;;;;;;5029891;28;20025;-59
2022/05/29 03:11:23;;;;;;;9.07;7.15;;;;;;;;;;5025749;28;20537;-59
2022/05/29 03:14:00;;;;;;;8.23;7.43;;;;;;;;;;5027049;28;20041;-59
2022/05/29 03:16:30;;;;;;;6.78;6.28;;;;;;;;;;5029219;28;20367;-59
2022/05/29 03:19:26;;;;;;;8.75;8.15;;;;;;;;;;5028854;28;20041;-59
2022/05/29 03:22:16;;;;;;;7.15;6.65;;;;;;;;;;5027405;28;20452;-59
2022/05/29 03:24:50;;;;;;;8.05;7.45;;;;;;;;;;5028940;28;20446;-59
2022/05/29 03:27:29;;;;;;;7.30;6.80;;;;;;;;;;5027071;28;20118;-59
2022/05/29 03:30:19;;;;;;;8.15;7.65;;;;;;;;;;5025132;28;20035;-59
2022/05/29 03:32:48;;;;;;;7.47;6.97;;;;;;;;;;5027770;28;20060;-59
2022/05/29 03:35:26;;;;;;;8.60;8.10;;;;;;;;;;5027288;28;20983;-59
2022/05/29 03:37:52;;;;;;;8.93;8.32;;;;;;;;;;5026836;28;20037;-59
2022/05/29 03:40:19;;;;;;;7.55;6.95;;;;;;;;;;5028371;28;20037;-59
2022/05/29 03:42:44;;;;;;;7.57;7.07;;;;;;;;;;5030451;28;20098;-59
2022/05/29 03:45:10;;;;;;;7.95;7.45;;;;;;;;;;5028964;28;20048;-59
2022/05/29 03:47:37;;;;;;;8.48;7.93;;;;;;;;;;5025955;28;20551;-59
2022/05/29 03:50:05;;;;;;;8.52;7.75;;;;;;;;;;5024642;28;20474;-59
2022/05/29 03:52:31;;;;;;;8.20;7.65;;;;;;;;;;5025359;28;20052;-59
2022/05/29 03:54:58;;;;;;;8.70;8.10;;;;;;;;;;5026332;28;20042;-59
2022/05/29 03:57:23;;;;;;;9.30;8.70;;;;;;;;;;5029688;28;20025;-59
2022/05/29 03:59:48;;;;;;;8.05;7.47;;;;;;;;;;5028016;28;20091;-59
2022/05/29 04:02:14;;;;;;;8.20;7.65;;;;;;;;;;5025178;28;20037;-59
2022/05/29 04:04:39;;;;;;;7.72;7.22;;;;;;;;;;5024724;28;20463;-59
2022/05/29 04:07:05;;;;;;;7.80;7.30;;;;;;;;;;5028648;28;20028;-59
2022/05/29 04:12:14;;;;;;;8.55;8.00;;;;;;;;;;5024418;28;20035;-58
2022/05/29 04:14:42;;;;;;;7.13;6.63;;;;;;;;;;5024673;28;20029;-58
2022/05/29 04:17:09;;;;;;;7.15;6.65;;;;;;;;;;5024081;28;20485;-58
2022/05/29 04:19:35;;;;;;;7.40;6.90;;;;;;;;;;5023486;28;20089;-59
2022/05/29 04:22:00;;;;;;;7.53;7.03;;;;;;;;;;5025620;28;20053;-58
2022/05/29 04:24:26;;;;;;;9.27;8.52;;;;;;;;;;5027277;28;20030;-58
2022/05/29 04:26:52;;;;;;;8.18;7.57;;;;;;;;;;5026683;28;20033;-58
2022/05/29 04:29:19;;;;;;;8.43;7.88;;;;;;;;;;5028223;28;20065;-58
2022/05/29 04:34:28;;;;;;;8.40;7.80;;;;;;;;;;5024014;28;20529;-58
2022/05/29 04:36:54;;;;;;;10.18;9.27;;;;;;;;;;5021876;28;20053;-60
2022/05/29 04:39:19;;;;;;;7.85;7.35;;;;;;;;;;5025998;28;20473;-58
2022/05/29 04:41:45;;;;;;;8.57;8.05;;;;;;;;;;5025552;28;20028;-59
2022/05/29 04:44:10;;;;;;;8.07;7.57;;;;;;;;;;5027703;28;20036;-58
2022/05/29 04:46:35;;;;;;;7.75;7.25;;;;;;;;;;5023632;28;20105;-58
2022/05/29 04:49:01;;;;;;;8.25;7.75;;;;;;;;;;5024887;28;20580;-59
2022/05/29 04:51:26;;;;;;;7.47;6.97;;;;;;;;;;5025772;28;20037;-59
2022/05/29 04:53:51;;;;;;;7.10;6.60;;;;;;;;;;5031738;28;20060;-59
2022/05/29 04:56:17;;;;;;;7.35;6.85;;;;;;;;;;5025971;28;20049;-59
2022/05/29 04:58:42;;;;;;;6.72;6.22;;;;;;;;;;5028697;28;20033;-59
2022/05/29 05:01:07;;;;;;;7.28;6.78;;;;;;;;;;5023568;28;20065;-59
2022/05/29 05:03:33;;;;;;;6.75;6.25;;;;;;;;;;5026302;28;20666;-59
2022/05/29 05:05:58;;;;;;;6.65;6.20;;;;;;;;;;5025743;28;20490;-59
2022/05/29 05:08:24;;;;;;;6.97;6.47;;;;;;;;;;5026864;28;20485;-59
2022/05/29 05:10:50;;;;;;;7.15;6.55;;;;;;;;;;5027112;28;20072;-59
2022/05/29 05:13:16;;;;;;;6.07;5.68;;;;;;;;;;5022754;28;20132;-58
2022/05/29 05:15:42;;;;;;;6.82;6.32;;;;;;;;;;5029713;28;20527;-60
2022/05/29 05:18:07;;;;;;;5.80;5.40;;;;;;;;;;5035093;28;20033;-59
2022/05/29 05:20:33;;;;;;;7.07;6.57;;;;;;;;;;5033991;28;20462;-59
2022/05/29 05:22:59;;;;;;;6.45;6.03;;;;;;;;;;5035356;28;20032;-59
2022/05/29 05:25:25;;;;;;;5.65;5.25;;;;;;;;;;5035381;28;20033;-57
2022/05/29 05:27:51;;;;;;;6.65;6.15;;;;;;;;;;5032699;28;20489;-58
2022/05/29 05:30:16;;;;;;;5.68;5.28;;;;;;;;;;5033872;28;20033;-58
2022/05/29 05:32:42;;;;;;;5.22;4.82;;;;;;;;;;5030166;28;20148;-59
2022/05/29 05:35:08;;;;;;;6.18;5.78;;;;;;;;;;5032042;28;20445;-58
2022/05/29 05:37:36;;;;;;;6.88;6.38;;;;;;;;;;5027839;28;20122;-58
2022/05/29 05:40:07;;;;;;;6.60;6.20;;;;;;;;;;5029300;28;20409;-58
2022/05/29 05:42:33;;;;;;;8.85;7.07;;;;;;;;;;5031055;28;20031;-58
2022/05/29 05:44:58;;;;;;;7.72;7.22;;;;;;;;;;5028578;28;20037;-56
2022/05/29 05:47:24;;;;;;;6.60;6.10;;;;;;;;;;5032106;28;20095;-57
2022/05/29 05:49:50;;;;;;;6.15;5.75;;;;;;;;;;5027012;28;20039;-57
2022/05/29 05:52:16;;;;;;;7.03;6.53;;;;;;;;;;5028251;28;20487;-56
2022/05/29 05:54:42;;;;;;;7.20;6.70;;;;;;;;;;5032157;28;20457;-57
2022/05/29 05:57:08;;;;;;;7.47;6.97;;;;;;;;;;5030386;28;20061;-57
2022/05/29 05:59:38;;;;;;;6.40;6.00;;;;;;;;;;5026753;28;20083;-57
2022/05/29 06:02:06;;;;;;;7.68;7.18;;;;;;;;;;5030068;28;20024;-58
2022/05/29 06:04:32;;;;;;;7.80;7.30;;;;;;;;;;5026909;28;20481;-57
2022/05/29 06:06:57;;;;;;;8.13;7.53;;;;;;;;;;5029610;28;20029;-58
2022/05/29 06:09:23;;;;;;;8.02;7.43;;;;;;;;;;5030024;28;20037;-57
2022/05/29 06:11:49;;;;;;;7.88;7.38;;;;;;;;;;5028112;28;20034;-57
2022/05/29 06:14:14;;;;;;;6.22;5.82;;;;;;;;;;5027538;28;20361;-57
2022/05/29 06:16:39;;;;;;;7.05;6.55;;;;;;;;;;5030973;28;20040;-57
2022/05/29 06:19:06;;;;;;;7.20;6.70;;;;;;;;;;5032525;28;20125;-57
2022/05/29 06:21:33;;;;;;;6.60;6.15;;;;;;;;;;5024167;28;20039;-58
2022/05/29 06:23:58;;;;;;;6.85;6.35;;;;;;;;;;5028396;28;20438;-58
2022/05/29 06:26:23;;;;;;;7.78;7.22;;;;;;;;;;5028884;28;20050;-58
2022/05/29 06:28:49;;;;;;;7.03;6.53;;;;;;;;;;5030380;28;20029;-58
2022/05/29 06:31:14;;;;;;;7.30;6.80;;;;;;;;;;5029659;28;20068;-57
2022/05/29 06:33:40;;;;;;;7.50;7.00;;;;;;;;;;5027270;28;20047;-57
2022/05/29 06:36:10;;;;;;;7.30;6.80;;;;;;;;;;5030368;28;20029;-57
2022/05/29 06:38:35;;;;;;;7.03;6.53;;;;;;;;;;5028679;28;20051;-57
2022/05/29 06:41:07;;;;;;;7.55;7.05;;;;;;;;;;5028807;28;20048;-58
2022/05/29 06:43:33;;;;;;;7.00;6.50;;;;;;;;;;5030397;28;20091;-57
2022/05/29 06:46:00;;;;;;;7.38;6.88;;;;;;;;;;5027446;28;20087;-59
2022/05/29 06:48:26;;;;;;;7.45;6.95;;;;;;;;;;5031682;28;20053;-58
2022/05/29 06:50:51;;;;;;;8.10;7.50;;;;;;;;;;5032208;28;20057;-58
2022/05/29 06:53:17;;;;;;;10.70;10.00;;;;;;;;;;5032499;28;20044;-58
2022/05/29 06:55:55;;;;;;;10.82;10.15;;;;;;;;;;5030434;28;20025;-58
2022/05/29 06:58:22;;;;;;;12.43;11.73;;;;;;;;;;5029344;28;20035;-59
2022/05/29 07:08:59;;;;;;;18.17;17.15;;;;;;;;;;5034160;28;20028;-58
2022/05/29 07:11:30;;;;;;;20.27;19.20;;;;;;;;;;5033704;28;20033;-58
2022/05/29 07:13:57;;;;;;;21.23;20.02;;;;;;;;;;5031092;28;20386;-57
2022/05/29 07:16:23;;;;;;;20.27;19.08;;;;;;;;;;5030636;28;20033;-56
2022/05/29 07:18:50;;;;;;;20.90;19.80;;;;;;;;;;5028495;28;20023;-57
2022/05/29 07:21:16;;;;;;;21.35;20.23;;;;;;;;;;5031969;28;20383;-57
2022/05/29 07:23:43;;;;;;;17.27;16.30;;;;;;;;;;5033679;28;20021;-58
2022/05/29 07:26:09;;;;;;;15.15;14.30;;;;;;;;;;5036774;28;20037;-57
2022/05/29 07:28:34;;;;;;;12.70;11.98;;;;;;;;;;5029823;28;20450;-58
2022/05/29 07:31:00;;;;;;;15.05;14.15;;;;;;;;;;5032991;28;20124;-57
2022/05/29 07:33:25;;;;;;;8.32;7.82;;;;;;;;;;5031602;28;20071;-58
2022/05/29 07:35:51;;;;;;;7.15;6.65;;;;;;;;;;5032742;28;20413;-57
2022/05/29 07:38:17;;;;;;;6.95;6.47;;;;;;;;;;5033713;28;20044;-57
2022/05/29 07:40:42;;;;;;;13.00;12.15;;;;;;;;;;5030041;28;20114;-57
2022/05/29 07:43:20;;;;;;;8.23;7.70;;;;;;;;;;5028231;28;20033;-57
2022/05/29 07:46:03;;;;;;;11.63;10.93;;;;;;;;;;5033218;28;20087;-57
2022/05/29 07:48:28;;;;;;;7.35;6.85;;;;;;;;;;5034013;28;20029;-57
2022/05/29 07:50:54;;;;;;;7.20;6.70;;;;;;;;;;5030199;28;20044;-58
2022/05/29 07:53:21;;;;;;;6.93;6.43;;;;;;;;;;5030985;28;20025;-57
2022/05/29 07:55:46;;;;;;;10.75;10.07;;;;;;;;;;5031026;28;20044;-57
2022/05/29 07:58:13;;;;;;;9.05;8.45;;;;;;;;;;5029266;28;20639;-57
2022/05/29 08:00:40;;;;;;;9.70;9.10;;;;;;;;;;5026457;28;20502;-57
2022/05/29 08:03:05;;;;;;;7.32;6.72;;;;;;;;;;5026092;28;20554;-58
2022/05/29 08:05:33;;;;;;;8.52;8.00;;;;;;;;;;5025017;28;20048;-57
2022/05/29 08:07:59;;;;;;;10.13;9.52;;;;;;;;;;5028523;28;20064;-57
2022/05/29 08:10:26;;;;;;;10.20;9.60;;;;;;;;;;5025170;28;20033;-57
2022/05/29 08:12:51;;;;;;;23.05;21.65;;;;;;;;;;5024820;28;20033;-57
2022/05/29 08:15:17;;;;;;;18.85;17.65;;;;;;;;;;5026469;28;20575;-58
2022/05/29 08:17:43;;;;;;;19.63;18.52;;;;;;;;;;5027719;28;20091;-57
2022/05/29 08:20:10;;;;;;;18.90;17.90;;;;;;;;;;5026735;28;20037;-57
2022/05/29 08:22:36;;;;;;;14.13;13.32;;;;;;;;;;5024952;28;20574;-57
2022/05/29 08:30:43;;;;;;;11.85;11.15;;;;;;;;;;5026609;28;20029;-57
2022/05/29 08:33:13;;;;;;;15.30;14.30;;;;;;;;;;5030454;28;20061;-57
2022/05/29 08:35:41;;;;;;;12.68;11.93;;;;;;;;;;5025520;28;20049;-57
2022/05/29 08:38:08;;;;;;;10.88;10.23;;;;;;;;;;5027090;28;20045;-57
2022/05/29 08:40:40;;;;;;;15.15;14.25;;;;;;;;;;5027740;28;20477;-57
2022/05/29 08:43:09;;;;;;;18.88;17.88;;;;;;;;;;5023488;28;20037;-58
2022/05/29 08:45:37;;;;;;;24.30;23.00;;;;;;;;;;5024625;28;20120;-58
2022/05/29 08:48:03;;;;;;;23.67;22.42;;;;;;;;;;5026707;28;20036;-58
2022/05/29 08:50:40;;;;;;;22.08;20.88;;;;;;;;;;5024679;28;20021;-57
2022/05/29 08:53:16;;;;;;;20.17;18.33;;;;;;;;;;5028131;28;20033;-58
2022/05/29 08:56:02;;;;;;;21.98;20.77;;;;;;;;;;5030279;28;20041;-57
2022/05/29 08:58:53;;;;;;;16.38;15.48;;;;;;;;;;5027652;28;20067;-57
2022/05/29 09:01:28;;;;;;;25.80;24.30;;;;;;;;;;5026640;28;20068;-57
2022/05/29 09:04:01;;;;;;;32.08;30.42;;;;;;;;;;5027495;28;20048;-57
2022/05/29 09:06:41;;;;;;;19.90;18.83;;;;;;;;;;5024337;28;20043;-57
2022/05/29 09:09:19;;;;;;;12.43;11.73;;;;;;;;;;5028811;28;20593;-58
2022/05/29 09:11:55;;;;;;;21.27;20.13;;;;;;;;;;5026819;28;20037;-56
2022/05/29 09:14:23;;;;;;;26.60;25.20;;;;;;;;;;5028617;28;20029;-57
2022/05/29 09:16:56;;;;;;;27.75;26.30;;;;;;;;;;5027630;28;20565;-56
2022/05/29 09:19:29;;;;;;;13.35;12.57;;;;;;;;;;5026035;28;20132;-57
2022/05/29 09:22:01;;;;;;;20.50;19.40;;;;;;;;;;5027527;28;20038;-57
2022/05/29 09:24:43;;;;;;;13.70;12.93;;;;;;;;;;5023281;28;20104;-58
2022/05/29 09:27:10;;;;;;;14.38;13.48;;;;;;;;;;5024939;28;20076;-56
2022/05/29 09:29:36;;;;;;;11.77;11.07;;;;;;;;;;5024436;28;20055;-56
2022/05/29 09:32:04;;;;;;;15.65;14.75;;;;;;;;;;5024917;28;20095;-56
2022/05/29 09:34:30;;;;;;;12.65;11.85;;;;;;;;;;5025831;28;20034;-57
2022/05/29 09:37:18;;;;;;;14.88;13.98;;;;;;;;;;5026803;28;20079;-56
2022/05/29 09:39:48;;;;;;;23.70;22.42;;;;;;;;;;5028088;28;20075;-56
2022/05/29 09:42:48;;;;;;;11.73;11.02;;;;;;;;;;5023367;28;20038;-54
2022/05/29 09:45:22;;;;;;;21.55;20.35;;;;;;;;;;5022763;28;20111;-53
2022/05/29 09:50:43;;;;;;;12.75;12.00;;;;;;;;;;5027611;28;20455;-55
2022/05/29 09:53:25;;;;;;;17.08;16.13;;;;;;;;;;5026671;28;20492;-55
2022/05/29 09:56:03;;;;;;;9.25;8.65;;;;;;;;;;5027100;28;20043;-54
2022/05/29 09:58:49;;;;;;;15.18;14.30;;;;;;;;;;5029024;28;20029;-56
2022/05/29 10:01:34;;;;;;;10.13;9.52;;;;;;;;;;5032590;28;20034;-54
2022/05/29 10:04:03;;;;;;;18.42;17.08;;;;;;;;;;5033867;28;20028;-58
2022/05/29 10:06:32;;;;;;;15.70;14.80;;;;;;;;;;5033857;28;20729;-55
2022/05/29 10:09:12;;;;;;;22.30;21.13;;;;;;;;;;5032217;28;20094;-59
2022/05/29 10:11:39;;;;;;;20.40;19.30;;;;;;;;;;5029726;28;20304;-58
2022/05/29 10:14:25;;;;;;;32.72;31.02;;;;;;;;;;5033516;28;20107;-57
2022/05/29 10:16:55;;;;;;;41.13;38.65;;;;;;;;;;5035337;28;20087;-58
2022/05/29 10:19:39;;;;;;;22.33;21.13;;;;;;;;;;5034807;28;20040;-58
2022/05/29 10:22:19;;;;;;;22.65;21.38;;;;;;;;;;5035613;28;20263;-57
2022/05/29 10:24:44;;;;;;;20.38;19.17;;;;;;;;;;5034718;28;20031;-58
2022/05/29 10:27:27;;;;;;;14.95;14.05;;;;;;;;;;5032602;28;20372;-59
2022/05/29 10:30:04;;;;;;;19.58;18.38;;;;;;;;;;5016332;28;20021;-58
2022/05/29 10:32:33;;;;;;;8.90;8.20;;;;;;;;;;5034161;28;20033;-57
2022/05/29 10:35:20;;;;;;;11.13;10.20;;;;;;;;;;5029182;28;20055;-57
2022/05/29 10:37:46;;;;;;;12.30;11.43;;;;;;;;;;5030295;28;20219;-58
2022/05/29 10:40:19;;;;;;;6.28;5.88;;;;;;;;;;5028956;28;20044;-57
2022/05/29 10:42:48;;;;;;;9.00;8.20;;;;;;;;;;5030105;28;20055;-57
2022/05/29 10:45:24;;;;;;;19.08;17.88;;;;;;;;;;5029060;28;20410;-57
2022/05/29 10:48:17;;;;;;;12.23;11.43;;;;;;;;;;5021213;28;20030;-57
2022/05/29 10:51:06;;;;;;;10.65;9.85;;;;;;;;;;5018360;28;20741;-57
2022/05/29 10:53:34;;;;;;;10.90;10.15;;;;;;;;;;5028237;28;20041;-58
2022/05/29 10:56:17;;;;;;;16.30;15.40;;;;;;;;;;5029185;28;20037;-57
2022/05/29 10:58:57;;;;;;;20.02;18.92;;;;;;;;;;5030370;28;20033;-57
2022/05/29 11:04:18;;;;;;;8.00;7.40;;;;;;;;;;5028944;28;20037;-58
2022/05/29 11:06:58;;;;;;;10.63;9.93;;;;;;;;;;5029197;28;20033;-57
2022/05/29 11:09:47;;;;;;;10.63;9.93;;;;;;;;;;5030734;28;20034;-59
2022/05/29 11:12:37;;;;;;;11.68;10.98;;;;;;;;;;5028639;28;20295;-57
2022/05/29 11:15:10;;;;;;;15.80;14.60;;;;;;;;;;5028564;28;20033;-58
2022/05/29 11:17:48;;;;;;;12.68;11.85;;;;;;;;;;5029039;28;20042;-57
2022/05/29 11:21:08;;;;;;;84.28;76.85;;;;;;;;;;5030577;28;20061;-58
2022/05/29 11:23:48;;;;;;;16.58;15.57;;;;;;;;;;4988209;28;20495;-57
2022/05/29 11:26:34;;;;;;;17.92;16.85;;;;;;;;;;5028678;28;20041;-58
2022/05/29 11:29:26;;;;;;;16.58;15.68;;;;;;;;;;5027471;28;20037;-58
2022/05/29 11:32:08;;;;;;;22.00;20.67;;;;;;;;;;5030036;28;20094;-58
2022/05/29 11:34:39;;;;;;;16.63;15.70;;;;;;;;;;5026608;28;20037;-57
2022/05/29 11:37:33;;;;;;;31.80;30.10;;;;;;;;;;5025556;28;20091;-58
2022/05/29 11:40:16;;;;;;;18.83;17.80;;;;;;;;;;5029702;28;20036;-59
2022/05/29 11:43:02;;;;;;;18.52;17.50;;;;;;;;;;5027479;28;20041;-59
2022/05/29 11:51:31;;;;;;;23.00;21.75;;;;;;;;;;5028214;28;20396;-59
2022/05/29 11:54:14;;;;;;;44.70;42.42;;;;;;;;;;5032959;28;20035;-59
2022/05/29 11:56:45;;;;;;;59.08;56.00;;;;;;;;;;5029858;28;20048;-59
2022/05/29 11:59:24;;;;;;;19.73;18.63;;;;;;;;;;5034426;28;20040;-59
2022/05/29 12:02:00;;;;;;;17.80;16.80;;;;;;;;;;5035028;28;20099;-59
2022/05/29 12:04:35;;;;;;;23.58;22.27;;;;;;;;;;5033387;28;20026;-60
2022/05/29 12:07:14;;;;;;;26.13;24.73;;;;;;;;;;5030352;28;20040;-59
2022/05/29 12:09:47;;;;;;;22.02;20.85;;;;;;;;;;5031776;28;20049;-59
2022/05/29 12:12:25;;;;;;;19.90;18.80;;;;;;;;;;5033032;28;20029;-59
2022/05/29 12:15:00;;;;;;;28.38;26.88;;;;;;;;;;5034430;28;20043;-58
2022/05/29 12:17:33;;;;;;;25.15;23.85;;;;;;;;;;5030819;28;20032;-59
2022/05/29 12:19:58;;;;;;;23.63;22.33;;;;;;;;;;5030221;28;20514;-60
2022/05/29 12:22:35;;;;;;;24.75;22.75;;;;;;;;;;5035820;28;20053;-59
2022/05/29 12:25:04;;;;;;;20.90;19.80;;;;;;;;;;5029599;28;20098;-59
2022/05/29 12:27:29;;;;;;;21.95;20.75;;;;;;;;;;5031352;28;20036;-60
2022/05/29 12:30:06;;;;;;;19.55;18.45;;;;;;;;;;5022397;28;20029;-60
2022/05/29 12:32:37;;;;;;;18.65;17.65;;;;;;;;;;5026139;28;20103;-59
2022/05/29 12:35:29;;;;;;;16.10;15.20;;;;;;;;;;5026348;28;20031;-61
2022/05/29 12:38:32;;;;;;;15.13;14.25;;;;;;;;;;5028996;28;20041;-60
2022/05/29 12:41:31;;;;;;;18.20;17.20;;;;;;;;;;5024621;28;20087;-60
2022/05/29 12:44:18;;;;;;;14.30;13.48;;;;;;;;;;5023718;28;20110;-62
2022/05/29 12:47:10;;;;;;;14.45;13.65;;;;;;;;;;5025420;28;20066;-60
2022/05/29 12:50:27;;;;;;;13.40;12.60;;;;;;;;;;5020030;28;20064;-59
2022/05/29 12:53:14;;;;;;;13.85;13.05;;;;;;;;;;5002780;28;20425;-60
2022/05/29 12:55:52;;;;;;;12.68;11.98;;;;;;;;;;5029946;28;20033;-61
2022/05/29 12:58:33;;;;;;;12.30;11.60;;;;;;;;;;5026851;28;20499;-60
2022/05/29 13:01:12;;;;;;;14.35;13.45;;;;;;;;;;5022263;28;20021;-61
2022/05/29 13:04:15;;;;;;;20.30;19.20;;;;;;;;;;5024502;28;20068;-60
2022/05/29 13:07:26;;;;;;;18.92;17.90;;;;;;;;;;5030414;28;20021;-60
2022/05/29 13:10:10;;;;;;;37.70;35.75;;;;;;;;;;5025620;28;20043;-60
2022/05/29 13:12:43;;;;;;;20.77;19.65;;;;;;;;;;5012148;28;20040;-60
2022/05/29 13:15:27;;;;;;;40.78;38.70;;;;;;;;;;5026038;28;20108;-61
2022/05/29 13:18:16;;;;;;;28.50;26.95;;;;;;;;;;5032821;28;20032;-60
2022/05/29 13:21:03;;;;;;;28.73;27.23;;;;;;;;;;5029834;28;20043;-60
2022/05/29 13:23:31;;;;;;;54.42;51.70;;;;;;;;;;5033569;28;20025;-61
2022/05/29 13:25:57;;;;;;;54.70;52.00;;;;;;;;;;5033196;28;20037;-61
2022/05/29 13:28:36;;;;;;;64.07;60.88;;;;;;;;;;5027173;28;20044;-60
2022/05/29 13:31:12;;;;;;;31.83;30.15;;;;;;;;;;5026732;28;20103;-60
2022/05/29 13:34:03;;;;;;;50.70;48.15;;;;;;;;;;5026265;28;20044;-60
2022/05/29 13:36:43;;;;;;;44.35;42.13;;;;;;;;;;5027466;28;20048;-61
2022/05/29 13:39:28;;;;;;;48.03;45.60;;;;;;;;;;5026315;28;20037;-61
2022/05/29 13:42:10;;;;;;;53.72;51.03;;;;;;;;;;5024249;28;20423;-60
2022/05/29 13:44:41;;;;;;;30.20;28.60;;;;;;;;;;5027689;28;20116;-61
2022/05/29 13:47:19;;;;;;;26.15;24.75;;;;;;;;;;5028975;28;20125;-60
2022/05/29 13:49:56;;;;;;;19.85;18.65;;;;;;;;;;5032785;28;20128;-60
2022/05/29 13:52:25;;;;;;;25.38;24.00;;;;;;;;;;5030203;28;20124;-60
2022/05/29 13:55:02;;;;;;;28.40;26.90;;;;;;;;;;5032145;28;20060;-61
2022/05/29 14:04:04;;;;;;;53.50;50.80;;;;;;;;;;5031816;28;20045;-60
2022/05/29 14:06:42;;;;;;;53.08;50.22;;;;;;;;;;5019754;28;20558;-60
2022/05/29 14:09:27;;;;;;;44.50;42.20;;;;;;;;;;5030250;28;20069;-60
2022/05/29 14:11:56;;;;;;;31.88;30.23;;;;;;;;;;5030821;28;20041;-61
2022/05/29 14:14:34;;;;;;;39.20;37.20;;;;;;;;;;5036358;28;20032;-59
2022/05/29 14:17:21;;;;;;;38.63;36.63;;;;;;;;;;5035139;28;20028;-59
2022/05/29 14:20:12;;;;;;;29.30;27.80;;;;;;;;;;5031423;28;20099;-59
2022/05/29 14:22:57;;;;;;;37.45;35.55;;;;;;;;;;5033094;28;20045;-59
2022/05/29 14:25:27;;;;;;;37.33;35.40;;;;;;;;;;5035120;28;20380;-59
2022/05/29 14:28:37;;;;;;;41.13;39.05;;;;;;;;;;5036121;28;20338;-59
2022/05/29 14:31:09;;;;;;;55.83;53.03;;;;;;;;;;5013648;28;20041;-59
2022/05/29 14:33:56;;;;;;;44.08;41.85;;;;;;;;;;5035679;28;20030;-59
2022/05/29 14:36:42;;;;;;;47.90;45.50;;;;;;;;;;5032191;28;20035;-58
2022/05/29 14:39:18;;;;;;;56.20;53.40;;;;;;;;;;5033794;28;20040;-59
2022/05/29 14:41:47;;;;;;;62.65;59.55;;;;;;;;;;5031377;28;20390;-59
2022/05/29 14:44:33;;;;;;;54.85;52.08;;;;;;;;;;5034830;28;20071;-59
2022/05/29 14:47:05;;;;;;;54.55;51.80;;;;;;;;;;5036089;28;20127;-59
2022/05/29 14:49:46;;;;;;;63.97;60.78;;;;;;;;;;5035458;28;20024;-59
2022/05/29 14:52:40;;;;;;;67.05;63.67;;;;;;;;;;5033763;28;20106;-55
2022/05/29 14:55:15;;;;;;;47.25;44.85;;;;;;;;;;5033776;28;20108;-52
2022/05/29 14:57:52;;;;;;;44.47;42.20;;;;;;;;;;5037076;28;20021;-54
2022/05/29 15:00:27;;;;;;;43.47;41.28;;;;;;;;;;5032336;28;22558;-58
2022/05/29 15:02:54;;;;;;;18.88;17.67;;;;;;;;;;5030566;28;20029;-58
2022/05/29 15:05:21;;;;;;;20.95;19.83;;;;;;;;;;5032878;28;20030;-58
2022/05/29 15:10:59;;;;;;;41.88;39.70;;;;;;;;;;5031745;28;20036;-58
2022/05/29 15:13:56;;;;;;;46.03;43.63;;;;;;;;;;5033070;28;20034;-57
2022/05/29 15:16:26;;;;;;;36.60;34.70;;;;;;;;;;5031867;28;20043;-58
2022/05/29 15:18:52;;;;;;;29.38;27.88;;;;;;;;;;5034350;28;20033;-58
2022/05/29 15:24:14;;;;;;;40.85;38.75;;;;;;;;;;5029302;28;20040;-59
2022/05/29 15:26:47;;;;;;;42.13;40.00;;;;;;;;;;5037766;28;20032;-58
2022/05/29 15:29:21;;;;;;;44.58;42.30;;;;;;;;;;5029317;28;20025;-58
2022/05/29 15:31:48;;;;;;;30.85;29.25;;;;;;;;;;5032569;28;20068;-59
2022/05/29 15:34:21;;;;;;;28.95;27.45;;;;;;;;;;5031541;28;20044;-58
2022/05/29 15:37:15;;;;;;;36.13;34.25;;;;;;;;;;5034225;28;20090;-58
2022/05/29 15:39:53;;;;;;;35.13;33.33;;;;;;;;;;5034148;28;20116;-57
2022/05/29 15:42:25;;;;;;;30.90;29.30;;;;;;;;;;5032126;28;20017;-58
2022/05/29 15:45:30;;;;;;;37.58;35.63;;;;;;;;;;5031424;28;20025;-58
2022/05/29 15:48:14;;;;;;;18.77;17.77;;;;;;;;;;5029916;28;20064;-58
2022/05/29 15:50:58;;;;;;;17.42;16.45;;;;;;;;;;5033527;28;20063;-59
2022/05/29 15:53:49;;;;;;;49.72;47.20;;;;;;;;;;5032174;28;20037;-58